Terminal Aerodrome Forecast
Issued by NWS

Home | Current Version | Previous Version | Graphics & Text | Print | Product List | Glossary Off
Versions: 1 2 3 4 5 6 7 8 9 10 11 12 13 14 15

000
FTUS43 KGRB 041131
TAFCWA
TAF
KCWA 041131Z 0412/0512 15004KT P6SM -SN OVC021
     FM041300 14005KT 2SM -SN OVC015
     FM041400 15007KT 1SM -SN OVC006
      TEMPO 0416/0420 3/4SM -SN OVC004
     FM042300 16008KT 2SM -SN OVC008
      TEMPO 0500/0502 4SM -SN
     FM050300 23006KT P6SM OVC007
     FM050500 25006KT P6SM BKN014 OVC020=

USA.gov is the U.S. government's official web portal to all federal, state and local government web resources and services.